sensor_id;sensor_type;location;lat;lon;timestamp;P1;durP1;ratioP1;P2;durP2;ratioP2
48789;SDS011;41718;51.980;5.734;2023-03-03T00:00:19;41.38;;;21.77;;
48789;SDS011;41718;51.980;5.734;2023-03-03T00:05:20;39.03;;;19.77;;
48789;SDS011;41718;51.980;5.734;2023-03-03T00:10:25;35.72;;;19.83;;
48789;SDS011;41718;51.980;5.734;2023-03-03T00:15:26;34.63;;;17.98;;
48789;SDS011;41718;51.980;5.734;2023-03-03T00:20:32;42.63;;;21.38;;
48789;SDS011;41718;51.980;5.734;2023-03-03T00:25:40;44.65;;;22.33;;
48789;SDS011;41718;51.980;5.734;2023-03-03T00:30:49;44.58;;;21.52;;
48789;SDS011;41718;51.980;5.734;2023-03-03T00:35:53;40.00;;;19.80;;
48789;SDS011;41718;51.980;5.734;2023-03-03T00:40:56;38.80;;;20.13;;
48789;SDS011;41718;51.980;5.734;2023-03-03T00:45:57;35.83;;;17.83;;
48789;SDS011;41718;51.980;5.734;2023-03-03T00:50:59;44.15;;;22.95;;
48789;SDS011;41718;51.980;5.734;2023-03-03T00:56:05;35.17;;;18.57;;
48789;SDS011;41718;51.980;5.734;2023-03-03T01:01:07;36.50;;;18.92;;
48789;SDS011;41718;51.980;5.734;2023-03-03T01:06:09;43.17;;;22.13;;
48789;SDS011;41718;51.980;5.734;2023-03-03T01:11:12;40.05;;;20.40;;
48789;SDS011;41718;51.980;5.734;2023-03-03T01:16:17;40.97;;;21.23;;
48789;SDS011;41718;51.980;5.734;2023-03-03T01:21:19;38.38;;;21.40;;
48789;SDS011;41718;51.980;5.734;2023-03-03T01:26:21;44.20;;;19.85;;
48789;SDS011;41718;51.980;5.734;2023-03-03T01:31:22;40.38;;;21.63;;
48789;SDS011;41718;51.980;5.734;2023-03-03T01:36:27;34.88;;;17.42;;
48789;SDS011;41718;51.980;5.734;2023-03-03T01:41:30;37.13;;;19.00;;
48789;SDS011;41718;51.980;5.734;2023-03-03T01:46:45;33.97;;;19.45;;
48789;SDS011;41718;51.980;5.734;2023-03-03T01:52:21;37.67;;;19.40;;
48789;SDS011;41718;51.980;5.734;2023-03-03T01:57:28;27.83;;;15.63;;
48789;SDS011;41718;51.980;5.734;2023-03-03T02:02:34;38.30;;;17.80;;
48789;SDS011;41718;51.980;5.734;2023-03-03T02:07:36;37.42;;;18.23;;
48789;SDS011;41718;51.980;5.734;2023-03-03T02:12:48;32.17;;;18.00;;
48789;SDS011;41718;51.980;5.734;2023-03-03T02:17:52;35.60;;;18.27;;
48789;SDS011;41718;51.980;5.734;2023-03-03T02:28:17;39.58;;;18.27;;
48789;SDS011;41718;51.980;5.734;2023-03-03T02:33:19;44.53;;;18.45;;
48789;SDS011;41718;51.980;5.734;2023-03-03T02:43:35;35.88;;;17.08;;
48789;SDS011;41718;51.980;5.734;2023-03-03T02:48:46;35.20;;;16.90;;
48789;SDS011;41718;51.980;5.734;2023-03-03T02:53:48;42.25;;;18.05;;
48789;SDS011;41718;51.980;5.734;2023-03-03T02:58:50;31.45;;;17.02;;
48789;SDS011;41718;51.980;5.734;2023-03-03T03:03:51;40.53;;;19.63;;
48789;SDS011;41718;51.980;5.734;2023-03-03T03:08:55;30.40;;;16.00;;
48789;SDS011;41718;51.980;5.734;2023-03-03T03:13:57;30.48;;;15.32;;
48789;SDS011;41718;51.980;5.734;2023-03-03T03:18:58;31.83;;;16.35;;
48789;SDS011;41718;51.980;5.734;2023-03-03T03:24:01;29.10;;;15.10;;
48789;SDS011;41718;51.980;5.734;2023-03-03T03:29:03;29.83;;;16.00;;
48789;SDS011;41718;51.980;5.734;2023-03-03T03:34:14;34.95;;;15.80;;
48789;SDS011;41718;51.980;5.734;2023-03-03T03:39:16;26.05;;;14.48;;
48789;SDS011;41718;51.980;5.734;2023-03-03T03:44:17;39.05;;;17.90;;
48789;SDS011;41718;51.980;5.734;2023-03-03T03:49:19;32.50;;;15.80;;
48789;SDS011;41718;51.980;5.734;2023-03-03T03:54:21;34.13;;;17.55;;
48789;SDS011;41718;51.980;5.734;2023-03-03T03:59:25;39.25;;;19.05;;
48789;SDS011;41718;51.980;5.734;2023-03-03T04:04:28;37.78;;;18.15;;
48789;SDS011;41718;51.980;5.734;2023-03-03T04:09:29;39.22;;;17.75;;
48789;SDS011;41718;51.980;5.734;2023-03-03T04:14:31;40.85;;;19.35;;
48789;SDS011;41718;51.980;5.734;2023-03-03T04:19:32;40.08;;;20.58;;
48789;SDS011;41718;51.980;5.734;2023-03-03T04:24:34;40.88;;;21.95;;
48789;SDS011;41718;51.980;5.734;2023-03-03T04:29:37;40.38;;;20.00;;
48789;SDS011;41718;51.980;5.734;2023-03-03T04:34:39;47.60;;;22.45;;
48789;SDS011;41718;51.980;5.734;2023-03-03T04:39:40;43.58;;;20.10;;
48789;SDS011;41718;51.980;5.734;2023-03-03T04:44:42;36.40;;;18.65;;
48789;SDS011;41718;51.980;5.734;2023-03-03T04:49:44;35.47;;;18.13;;
48789;SDS011;41718;51.980;5.734;2023-03-03T04:54:45;41.20;;;20.15;;
48789;SDS011;41718;51.980;5.734;2023-03-03T04:59:47;35.13;;;17.48;;
48789;SDS011;41718;51.980;5.734;2023-03-03T05:04:48;37.22;;;17.73;;
48789;SDS011;41718;51.980;5.734;2023-03-03T05:09:50;38.55;;;15.93;;
48789;SDS011;41718;51.980;5.734;2023-03-03T05:14:52;36.40;;;16.48;;
48789;SDS011;41718;51.980;5.734;2023-03-03T05:19:53;39.45;;;16.60;;
48789;SDS011;41718;51.980;5.734;2023-03-03T05:24:59;30.02;;;15.15;;
48789;SDS011;41718;51.980;5.734;2023-03-03T05:30:01;32.78;;;16.67;;
48789;SDS011;41718;51.980;5.734;2023-03-03T05:35:02;36.78;;;16.83;;
48789;SDS011;41718;51.980;5.734;2023-03-03T05:40:10;37.92;;;17.83;;
48789;SDS011;41718;51.980;5.734;2023-03-03T05:45:12;33.95;;;16.35;;
48789;SDS011;41718;51.980;5.734;2023-03-03T05:50:14;31.95;;;14.82;;
48789;SDS011;41718;51.980;5.734;2023-03-03T05:55:16;31.58;;;15.25;;
48789;SDS011;41718;51.980;5.734;2023-03-03T06:00:21;31.08;;;14.20;;
48789;SDS011;41718;51.980;5.734;2023-03-03T06:05:23;34.25;;;15.25;;
48789;SDS011;41718;51.980;5.734;2023-03-03T06:10:25;26.27;;;14.75;;
48789;SDS011;41718;51.980;5.734;2023-03-03T06:15:26;25.15;;;13.15;;
48789;SDS011;41718;51.980;5.734;2023-03-03T06:20:29;24.15;;;11.50;;
48789;SDS011;41718;51.980;5.734;2023-03-03T06:25:31;27.17;;;12.15;;
48789;SDS011;41718;51.980;5.734;2023-03-03T06:30:35;24.20;;;11.27;;
48789;SDS011;41718;51.980;5.734;2023-03-03T06:35:37;23.40;;;12.48;;
48789;SDS011;41718;51.980;5.734;2023-03-03T06:40:39;28.73;;;13.65;;
48789;SDS011;41718;51.980;5.734;2023-03-03T06:45:41;23.17;;;12.20;;
48789;SDS011;41718;51.980;5.734;2023-03-03T06:50:43;25.77;;;12.45;;
48789;SDS011;41718;51.980;5.734;2023-03-03T06:55:45;28.13;;;12.32;;
48789;SDS011;41718;51.980;5.734;2023-03-03T07:00:54;24.02;;;11.63;;
48789;SDS011;41718;51.980;5.734;2023-03-03T07:06:01;25.92;;;12.98;;
48789;SDS011;41718;51.980;5.734;2023-03-03T07:11:15;23.65;;;12.10;;
48789;SDS011;41718;51.980;5.734;2023-03-03T07:16:23;17.67;;;8.10;;
48789;SDS011;41718;51.980;5.734;2023-03-03T07:21:32;17.45;;;8.60;;
48789;SDS011;41718;51.980;5.734;2023-03-03T07:26:43;19.40;;;8.43;;
48789;SDS011;41718;51.980;5.734;2023-03-03T07:31:45;16.65;;;8.10;;
48789;SDS011;41718;51.980;5.734;2023-03-03T07:36:52;17.70;;;9.52;;
48789;SDS011;41718;51.980;5.734;2023-03-03T07:42:15;21.70;;;11.07;;
48789;SDS011;41718;51.980;5.734;2023-03-03T07:47:25;20.58;;;10.63;;
48789;SDS011;41718;51.980;5.734;2023-03-03T07:52:35;20.02;;;11.25;;
48789;SDS011;41718;51.980;5.734;2023-03-03T07:57:50;21.27;;;10.15;;
48789;SDS011;41718;51.980;5.734;2023-03-03T08:03:37;17.80;;;9.23;;
48789;SDS011;41718;51.980;5.734;2023-03-03T08:08:29;20.50;;;9.20;;
48789;SDS011;41718;51.980;5.734;2023-03-03T08:18:36;21.17;;;12.02;;
48789;SDS011;41718;51.980;5.734;2023-03-03T08:23:51;25.00;;;12.20;;
48789;SDS011;41718;51.980;5.734;2023-03-03T08:28:56;18.70;;;8.82;;
48789;SDS011;41718;51.980;5.734;2023-03-03T08:33:58;16.55;;;8.05;;
48789;SDS011;41718;51.980;5.734;2023-03-03T08:39:00;17.38;;;8.65;;
48789;SDS011;41718;51.980;5.734;2023-03-03T08:44:03;19.30;;;9.25;;
48789;SDS011;41718;51.980;5.734;2023-03-03T08:49:05;14.07;;;6.20;;
48789;SDS011;41718;51.980;5.734;2023-03-03T08:54:07;15.10;;;7.82;;
48789;SDS011;41718;51.980;5.734;2023-03-03T08:59:11;15.70;;;7.53;;
48789;SDS011;41718;51.980;5.734;2023-03-03T09:04:13;15.60;;;7.05;;
48789;SDS011;41718;51.980;5.734;2023-03-03T09:09:47;21.55;;;7.47;;
48789;SDS011;41718;51.980;5.734;2023-03-03T09:14:51;13.77;;;7.53;;
48789;SDS011;41718;51.980;5.734;2023-03-03T09:19:57;14.70;;;6.90;;
48789;SDS011;41718;51.980;5.734;2023-03-03T09:25:05;13.63;;;6.57;;
48789;SDS011;41718;51.980;5.734;2023-03-03T09:35:38;13.43;;;7.28;;
48789;SDS011;41718;51.980;5.734;2023-03-03T09:40:56;11.70;;;6.03;;
48789;SDS011;41718;51.980;5.734;2023-03-03T09:57:19;7.32;;;4.75;;
48789;SDS011;41718;51.980;5.734;2023-03-03T10:19:17;6.18;;;4.00;;
48789;SDS011;41718;51.980;5.734;2023-03-03T10:24:43;6.50;;;3.90;;
48789;SDS011;41718;51.980;5.734;2023-03-03T10:41:13;4.43;;;3.17;;
48789;SDS011;41718;51.980;5.734;2023-03-03T10:57:23;10.70;;;4.40;;
48789;SDS011;41718;51.980;5.734;2023-03-03T11:02:42;10.43;;;4.53;;
48789;SDS011;41718;51.980;5.734;2023-03-03T11:24:36;5.97;;;3.20;;
48789;SDS011;41718;51.980;5.734;2023-03-03T11:35:18;6.82;;;4.32;;
48789;SDS011;41718;51.980;5.734;2023-03-03T11:40:54;6.47;;;3.70;;
48789;SDS011;41718;51.980;5.734;2023-03-03T11:46:18;10.05;;;4.88;;
48789;SDS011;41718;51.980;5.734;2023-03-03T12:19:42;3.35;;;2.95;;
48789;SDS011;41718;51.980;5.734;2023-03-03T12:35:46;7.00;;;3.60;;
48789;SDS011;41718;51.980;5.734;2023-03-03T12:41:19;3.13;;;2.13;;
48789;SDS011;41718;51.980;5.734;2023-03-03T12:52:22;3.70;;;2.88;;
48789;SDS011;41718;51.980;5.734;2023-03-03T12:57:51;4.78;;;1.98;;
48789;SDS011;41718;51.980;5.734;2023-03-03T13:19:40;6.88;;;5.20;;
48789;SDS011;41718;51.980;5.734;2023-03-03T13:30:22;7.50;;;4.68;;
48789;SDS011;41718;51.980;5.734;2023-03-03T13:35:43;4.65;;;2.97;;
48789;SDS011;41718;51.980;5.734;2023-03-03T13:41:03;8.52;;;4.68;;
48789;SDS011;41718;51.980;5.734;2023-03-03T13:52:14;3.28;;;2.20;;
48789;SDS011;41718;51.980;5.734;2023-03-03T14:03:14;3.65;;;2.03;;
48789;SDS011;41718;51.980;5.734;2023-03-03T14:19:47;6.30;;;1.70;;
48789;SDS011;41718;51.980;5.734;2023-03-03T14:25:05;3.28;;;1.60;;
48789;SDS011;41718;51.980;5.734;2023-03-03T14:35:28;5.60;;;1.85;;
48789;SDS011;41718;51.980;5.734;2023-03-03T14:40:33;4.22;;;1.90;;
48789;SDS011;41718;51.980;5.734;2023-03-03T14:45:43;3.40;;;1.88;;
48789;SDS011;41718;51.980;5.734;2023-03-03T14:50:56;3.10;;;1.92;;
48789;SDS011;41718;51.980;5.734;2023-03-03T14:56:27;1.90;;;1.70;;
48789;SDS011;41718;51.980;5.734;2023-03-03T15:01:32;3.70;;;1.92;;
48789;SDS011;41718;51.980;5.734;2023-03-03T15:06:43;3.13;;;1.45;;
48789;SDS011;41718;51.980;5.734;2023-03-03T15:11:49;3.60;;;1.45;;
48789;SDS011;41718;51.980;5.734;2023-03-03T15:16:57;2.33;;;1.60;;
48789;SDS011;41718;51.980;5.734;2023-03-03T15:22:21;7.50;;;2.05;;
48789;SDS011;41718;51.980;5.734;2023-03-03T15:27:58;2.40;;;1.45;;
48789;SDS011;41718;51.980;5.734;2023-03-03T15:43:52;3.00;;;1.98;;
48789;SDS011;41718;51.980;5.734;2023-03-03T15:54:18;3.40;;;1.80;;
48789;SDS011;41718;51.980;5.734;2023-03-03T16:05:12;2.85;;;1.83;;
48789;SDS011;41718;51.980;5.734;2023-03-03T16:10:19;4.05;;;1.88;;
48789;SDS011;41718;51.980;5.734;2023-03-03T16:15:47;3.70;;;1.75;;
48789;SDS011;41718;51.980;5.734;2023-03-03T16:42:10;4.13;;;1.88;;
48789;SDS011;41718;51.980;5.734;2023-03-03T16:52:53;5.18;;;1.95;;
48789;SDS011;41718;51.980;5.734;2023-03-03T16:58:22;3.72;;;1.67;;
48789;SDS011;41718;51.980;5.734;2023-03-03T17:03:50;4.80;;;1.73;;
48789;SDS011;41718;51.980;5.734;2023-03-03T17:14:44;4.57;;;3.55;;
48789;SDS011;41718;51.980;5.734;2023-03-03T17:30:56;1.92;;;1.20;;
48789;SDS011;41718;51.980;5.734;2023-03-03T17:41:45;2.78;;;1.00;;
48789;SDS011;41718;51.980;5.734;2023-03-03T17:47:09;1.92;;;1.20;;
48789;SDS011;41718;51.980;5.734;2023-03-03T18:40:58;5.22;;;2.03;;
48789;SDS011;41718;51.980;5.734;2023-03-03T18:46:01;10.10;;;2.13;;
48789;SDS011;41718;51.980;5.734;2023-03-03T18:51:09;4.38;;;1.90;;
48789;SDS011;41718;51.980;5.734;2023-03-03T18:56:11;16.65;;;3.40;;
48789;SDS011;41718;51.980;5.734;2023-03-03T19:01:42;9.60;;;3.15;;
48789;SDS011;41718;51.980;5.734;2023-03-03T19:07:02;10.80;;;4.97;;
48789;SDS011;41718;51.980;5.734;2023-03-03T19:12:46;13.50;;;3.60;;
48789;SDS011;41718;51.980;5.734;2023-03-03T19:18:00;12.68;;;2.80;;
48789;SDS011;41718;51.980;5.734;2023-03-03T19:23:18;10.85;;;3.20;;
48789;SDS011;41718;51.980;5.734;2023-03-03T19:28:33;11.20;;;2.97;;
48789;SDS011;41718;51.980;5.734;2023-03-03T20:00:45;16.73;;;3.78;;
48789;SDS011;41718;51.980;5.734;2023-03-03T20:17:04;14.57;;;3.70;;
48789;SDS011;41718;51.980;5.734;2023-03-03T20:28:23;9.00;;;3.72;;
48789;SDS011;41718;51.980;5.734;2023-03-03T20:45:12;10.02;;;4.03;;
48789;SDS011;41718;51.980;5.734;2023-03-03T21:02:01;17.92;;;4.20;;
48789;SDS011;41718;51.980;5.734;2023-03-03T21:07:24;15.13;;;4.57;;
48789;SDS011;41718;51.980;5.734;2023-03-03T21:12:35;10.00;;;4.53;;
48789;SDS011;41718;51.980;5.734;2023-03-03T21:17:37;12.98;;;4.85;;
48789;SDS011;41718;51.980;5.734;2023-03-03T21:22:45;16.73;;;3.72;;
48789;SDS011;41718;51.980;5.734;2023-03-03T21:27:48;12.55;;;4.22;;
48789;SDS011;41718;51.980;5.734;2023-03-03T21:32:56;20.05;;;4.35;;
48789;SDS011;41718;51.980;5.734;2023-03-03T21:38:07;12.30;;;4.32;;
48789;SDS011;41718;51.980;5.734;2023-03-03T21:43:09;15.77;;;3.42;;
48789;SDS011;41718;51.980;5.734;2023-03-03T21:48:38;10.10;;;3.35;;
48789;SDS011;41718;51.980;5.734;2023-03-03T21:53:44;12.05;;;4.38;;
48789;SDS011;41718;51.980;5.734;2023-03-03T21:58:51;11.20;;;3.80;;
48789;SDS011;41718;51.980;5.734;2023-03-03T22:03:52;14.05;;;4.88;;
48789;SDS011;41718;51.980;5.734;2023-03-03T22:08:56;12.43;;;3.13;;
48789;SDS011;41718;51.980;5.734;2023-03-03T22:14:01;14.27;;;4.63;;
48789;SDS011;41718;51.980;5.734;2023-03-03T22:19:03;15.73;;;4.55;;
48789;SDS011;41718;51.980;5.734;2023-03-03T22:24:15;12.02;;;3.65;;
48789;SDS011;41718;51.980;5.734;2023-03-03T22:29:22;9.50;;;3.35;;
48789;SDS011;41718;51.980;5.734;2023-03-03T22:34:27;29.13;;;5.40;;
48789;SDS011;41718;51.980;5.734;2023-03-03T22:39:29;11.90;;;3.38;;
48789;SDS011;41718;51.980;5.734;2023-03-03T22:49:37;21.83;;;5.18;;
48789;SDS011;41718;51.980;5.734;2023-03-03T22:54:40;14.20;;;4.97;;
48789;SDS011;41718;51.980;5.734;2023-03-03T22:59:42;13.68;;;4.10;;
48789;SDS011;41718;51.980;5.734;2023-03-03T23:04:47;10.15;;;3.58;;
48789;SDS011;41718;51.980;5.734;2023-03-03T23:09:58;17.38;;;4.35;;
48789;SDS011;41718;51.980;5.734;2023-03-03T23:15:09;16.35;;;4.80;;
48789;SDS011;41718;51.980;5.734;2023-03-03T23:20:16;19.27;;;4.07;;
48789;SDS011;41718;51.980;5.734;2023-03-03T23:25:22;10.25;;;3.13;;
48789;SDS011;41718;51.980;5.734;2023-03-03T23:30:24;14.38;;;3.08;;
48789;SDS011;41718;51.980;5.734;2023-03-03T23:35:26;18.70;;;3.63;;
48789;SDS011;41718;51.980;5.734;2023-03-03T23:40:28;25.63;;;4.18;;
48789;SDS011;41718;51.980;5.734;2023-03-03T23:45:29;10.07;;;3.35;;
48789;SDS011;41718;51.980;5.734;2023-03-03T23:50:31;14.82;;;3.78;;
48789;SDS011;41718;51.980;5.734;2023-03-03T23:55:33;8.07;;;2.90;;
